Time;durP1;ratioP1;P1;durP2;ratioP2;P2;SDS_P1;SDS_P2;PMS_P1;PMS_P2;Temp;Humidity;BMP_temperature;BMP_pressure;BME280_temperature;BME280_humidity;BME280_pressure;Samples;Min_cycle;Max_cycle;Signal;HPM_P1;HPM_P2
2022/07/09 00:00:06;;;;;;;13.80;8.50;;;;;;;;;;5023461;28;20072;-72
2022/07/09 00:02:31;;;;;;;12.70;9.38;;;;;;;;;;5021906;28;20285;-72
2022/07/09 00:04:56;;;;;;;13.88;9.38;;;;;;;;;;5021830;28;20029;-72
2022/07/09 00:07:21;;;;;;;14.32;9.38;;;;;;;;;;5022328;28;20029;-72
2022/07/09 00:09:46;;;;;;;14.83;9.87;;;;;;;;;;5022967;28;20113;-72
2022/07/09 00:12:11;;;;;;;11.67;8.67;;;;;;;;;;5020367;28;20044;-72
2022/07/09 00:14:37;;;;;;;13.30;8.33;;;;;;;;;;5021031;28;20037;-72
2022/07/09 00:17:02;;;;;;;11.37;7.93;;;;;;;;;;5022395;28;20279;-71
2022/07/09 00:19:27;;;;;;;9.75;7.32;;;;;;;;;;5023969;28;20104;-71
2022/07/09 00:21:52;;;;;;;14.37;9.13;;;;;;;;;;5026471;28;20025;-72
2022/07/09 00:24:17;;;;;;;14.63;8.63;;;;;;;;;;5019532;28;20801;-72
2022/07/09 00:26:43;;;;;;;16.57;10.10;;;;;;;;;;5026040;28;20279;-71
2022/07/09 00:29:08;;;;;;;20.33;9.80;;;;;;;;;;5023553;28;20304;-72
2022/07/09 00:31:33;;;;;;;15.70;9.70;;;;;;;;;;5023609;28;20274;-72
2022/07/09 00:33:58;;;;;;;19.55;9.82;;;;;;;;;;5025057;28;20326;-72
2022/07/09 00:36:23;;;;;;;14.23;9.20;;;;;;;;;;5024940;28;20112;-72
2022/07/09 00:38:48;;;;;;;12.40;8.87;;;;;;;;;;5029446;28;20029;-72
2022/07/09 00:41:14;;;;;;;9.60;8.20;;;;;;;;;;5024600;28;20068;-72
2022/07/09 00:43:45;;;;;;;15.45;8.50;;;;;;;;;;5029352;28;20025;-72
2022/07/09 00:46:10;;;;;;;17.35;10.27;;;;;;;;;;5029276;28;20064;-72
2022/07/09 00:48:35;;;;;;;15.57;8.87;;;;;;;;;;5027698;28;20053;-72
2022/07/09 00:51:00;;;;;;;15.60;9.03;;;;;;;;;;5026308;28;20907;-72
2022/07/09 00:53:25;;;;;;;15.10;8.83;;;;;;;;;;5025095;28;20022;-72
2022/07/09 00:55:51;;;;;;;14.37;8.93;;;;;;;;;;5023263;28;20287;-72
2022/07/09 00:58:17;;;;;;;15.82;8.25;;;;;;;;;;5023946;28;20598;-72
2022/07/09 01:00:43;;;;;;;21.70;10.60;;;;;;;;;;5023024;28;20083;-72
2022/07/09 01:03:08;;;;;;;16.55;10.18;;;;;;;;;;5019291;28;20037;-72
2022/07/09 01:05:37;;;;;;;13.60;9.15;;;;;;;;;;5029232;28;20105;-72
2022/07/09 01:08:03;;;;;;;12.82;7.43;;;;;;;;;;5024898;28;20017;-72
2022/07/09 01:10:29;;;;;;;11.90;8.15;;;;;;;;;;5024261;28;20028;-72
2022/07/09 01:12:55;;;;;;;13.35;8.25;;;;;;;;;;5025290;28;20030;-72
2022/07/09 01:15:20;;;;;;;15.13;9.02;;;;;;;;;;5022328;28;20048;-72
2022/07/09 01:17:45;;;;;;;13.48;8.48;;;;;;;;;;5021544;28;20471;-72
2022/07/09 01:20:10;;;;;;;16.93;9.70;;;;;;;;;;5024797;28;20113;-72
2022/07/09 01:22:36;;;;;;;21.47;8.80;;;;;;;;;;5025591;28;20416;-71
2022/07/09 01:25:04;;;;;;;15.88;9.63;;;;;;;;;;5023781;28;20285;-71
2022/07/09 01:27:29;;;;;;;20.48;9.40;;;;;;;;;;5025849;28;20017;-72
2022/07/09 01:29:54;;;;;;;13.80;9.05;;;;;;;;;;5021785;28;20017;-72
2022/07/09 01:32:19;;;;;;;12.23;8.50;;;;;;;;;;5023839;28;20034;-72
2022/07/09 01:34:44;;;;;;;13.00;8.63;;;;;;;;;;5022522;28;20282;-72
2022/07/09 01:37:09;;;;;;;17.83;9.63;;;;;;;;;;5023033;28;20274;-72
2022/07/09 01:39:35;;;;;;;39.67;14.50;;;;;;;;;;5018703;28;20056;-72
2022/07/09 01:42:00;;;;;;;37.40;12.10;;;;;;;;;;5020612;28;20140;-72
2022/07/09 01:44:25;;;;;;;27.13;13.25;;;;;;;;;;5019302;28;20784;-72
2022/07/09 01:46:50;;;;;;;27.17;10.87;;;;;;;;;;5021635;28;20452;-72
2022/07/09 01:49:15;;;;;;;18.13;8.80;;;;;;;;;;5023201;28;20320;-72
2022/07/09 01:51:41;;;;;;;15.93;8.20;;;;;;;;;;5024283;28;20455;-72
2022/07/09 01:54:06;;;;;;;14.32;8.55;;;;;;;;;;5020179;28;20756;-72
2022/07/09 01:56:32;;;;;;;12.80;8.10;;;;;;;;;;5021749;28;20057;-72
2022/07/09 01:58:57;;;;;;;15.00;7.70;;;;;;;;;;5022161;28;20025;-72
2022/07/09 02:01:23;;;;;;;12.75;7.82;;;;;;;;;;5020257;28;20057;-72
2022/07/09 02:03:48;;;;;;;12.30;7.68;;;;;;;;;;5022823;28;20445;-72
2022/07/09 02:06:13;;;;;;;25.08;10.88;;;;;;;;;;5019514;28;20032;-72
2022/07/09 02:08:39;;;;;;;23.00;11.40;;;;;;;;;;5024139;28;20033;-72
2022/07/09 02:11:04;;;;;;;19.38;9.52;;;;;;;;;;5020809;28;20373;-72
2022/07/09 02:13:29;;;;;;;14.05;8.68;;;;;;;;;;5020742;28;20021;-72
2022/07/09 02:15:54;;;;;;;15.87;9.77;;;;;;;;;;5019172;28;20032;-72
2022/07/09 02:18:20;;;;;;;11.55;8.50;;;;;;;;;;5020647;28;20051;-72
2022/07/09 02:20:45;;;;;;;18.75;10.13;;;;;;;;;;5025655;28;20439;-72
2022/07/09 02:23:10;;;;;;;27.02;12.43;;;;;;;;;;5027063;28;20079;-72
2022/07/09 02:25:35;;;;;;;17.83;11.23;;;;;;;;;;5025914;28;20021;-72
2022/07/09 02:28:01;;;;;;;19.73;10.30;;;;;;;;;;5024158;28;20130;-72
2022/07/09 02:30:26;;;;;;;20.13;10.63;;;;;;;;;;5023596;28;20599;-72
2022/07/09 02:32:51;;;;;;;16.63;9.17;;;;;;;;;;5020157;28;20021;-72
2022/07/09 02:35:16;;;;;;;21.63;10.47;;;;;;;;;;5018003;28;20874;-72
2022/07/09 02:37:42;;;;;;;17.08;9.88;;;;;;;;;;5023248;28;20271;-72
2022/07/09 02:40:07;;;;;;;20.33;9.98;;;;;;;;;;5024561;28;20041;-72
2022/07/09 02:42:32;;;;;;;20.90;10.32;;;;;;;;;;5024914;28;20029;-72
2022/07/09 02:44:58;;;;;;;19.43;11.30;;;;;;;;;;5019518;28;20112;-72
2022/07/09 02:47:23;;;;;;;17.50;10.75;;;;;;;;;;5022098;28;20025;-72
2022/07/09 02:49:48;;;;;;;22.37;11.50;;;;;;;;;;5020936;28;20033;-72
2022/07/09 02:52:13;;;;;;;22.63;11.53;;;;;;;;;;5023000;28;20104;-72
2022/07/09 02:54:38;;;;;;;17.30;10.17;;;;;;;;;;5018739;28;20044;-72
2022/07/09 02:57:04;;;;;;;18.13;10.37;;;;;;;;;;5022530;28;20761;-72
2022/07/09 02:59:29;;;;;;;29.08;12.25;;;;;;;;;;5017753;28;20037;-72
2022/07/09 03:01:54;;;;;;;19.48;12.02;;;;;;;;;;5022191;28;20030;-72
2022/07/09 03:04:19;;;;;;;25.80;12.97;;;;;;;;;;5025289;28;20037;-72
2022/07/09 03:06:44;;;;;;;21.70;11.30;;;;;;;;;;5025973;28;20090;-72
2022/07/09 03:09:09;;;;;;;21.07;12.87;;;;;;;;;;5023476;28;20426;-72
2022/07/09 03:11:35;;;;;;;21.35;13.18;;;;;;;;;;5023825;28;20507;-72
2022/07/09 03:14:00;;;;;;;19.90;11.18;;;;;;;;;;5019499;28;20102;-72
2022/07/09 03:16:25;;;;;;;30.57;16.30;;;;;;;;;;5016536;28;20037;-72
2022/07/09 03:18:50;;;;;;;31.53;15.37;;;;;;;;;;5018072;28;20370;-73
2022/07/09 03:21:15;;;;;;;32.37;15.90;;;;;;;;;;5024617;28;20267;-73
2022/07/09 03:23:40;;;;;;;28.55;15.40;;;;;;;;;;5012184;28;20286;-72
2022/07/09 03:26:06;;;;;;;28.70;14.48;;;;;;;;;;5017994;28;20034;-72
2022/07/09 03:28:31;;;;;;;26.83;14.45;;;;;;;;;;5018642;28;20048;-72
2022/07/09 03:30:57;;;;;;;24.08;13.27;;;;;;;;;;5021422;28;20021;-72
2022/07/09 03:33:22;;;;;;;21.98;12.95;;;;;;;;;;5023170;28;20116;-72
2022/07/09 03:35:47;;;;;;;23.02;12.52;;;;;;;;;;5022929;28;20013;-72
2022/07/09 03:38:13;;;;;;;28.77;14.10;;;;;;;;;;5018263;28;20471;-72
2022/07/09 03:40:38;;;;;;;24.13;13.83;;;;;;;;;;5014657;28;20270;-72
2022/07/09 03:43:03;;;;;;;138.77;17.83;;;;;;;;;;5022808;28;20112;-72
2022/07/09 03:45:28;;;;;;;47.27;22.03;;;;;;;;;;5018267;28;20602;-72
2022/07/09 03:47:54;;;;;;;32.80;17.13;;;;;;;;;;5018717;28;20298;-72
2022/07/09 03:50:20;;;;;;;33.88;19.15;;;;;;;;;;5020937;28;20022;-72
2022/07/09 03:52:45;;;;;;;35.35;19.38;;;;;;;;;;5018951;28;20053;-72
2022/07/09 03:55:10;;;;;;;33.37;17.47;;;;;;;;;;5019068;28;20105;-73
2022/07/09 03:57:35;;;;;;;27.73;15.45;;;;;;;;;;5017948;28;20290;-72
2022/07/09 04:00:01;;;;;;;27.10;15.43;;;;;;;;;;5013999;28;20036;-72
2022/07/09 04:02:26;;;;;;;28.63;15.30;;;;;;;;;;5023796;28;20021;-72
2022/07/09 04:04:51;;;;;;;28.80;15.33;;;;;;;;;;5020449;28;20507;-72
2022/07/09 04:07:16;;;;;;;31.25;14.95;;;;;;;;;;5023536;28;20276;-72
2022/07/09 04:09:42;;;;;;;30.33;16.23;;;;;;;;;;5028042;28;20112;-72
2022/07/09 04:12:07;;;;;;;60.45;19.65;;;;;;;;;;5024549;28;20033;-72
2022/07/09 04:14:32;;;;;;;39.10;18.85;;;;;;;;;;5023170;28;20025;-71
2022/07/09 04:16:58;;;;;;;43.63;17.40;;;;;;;;;;5026227;28;20014;-71
2022/07/09 04:19:23;;;;;;;73.05;17.80;;;;;;;;;;5027022;28;20587;-71
2022/07/09 04:21:48;;;;;;;50.70;16.98;;;;;;;;;;5018146;28;20033;-72
2022/07/09 04:24:15;;;;;;;31.58;15.65;;;;;;;;;;5027379;28;20029;-72
2022/07/09 04:26:40;;;;;;;30.45;15.15;;;;;;;;;;5024247;28;20045;-72
2022/07/09 04:29:05;;;;;;;28.98;15.23;;;;;;;;;;5018009;28;20480;-72
2022/07/09 04:31:31;;;;;;;27.33;15.07;;;;;;;;;;5020253;28;20056;-72
2022/07/09 04:33:56;;;;;;;29.60;14.52;;;;;;;;;;5024117;28;20044;-72
2022/07/09 04:36:21;;;;;;;30.53;14.17;;;;;;;;;;5022239;28;20029;-72
2022/07/09 04:38:46;;;;;;;24.40;13.73;;;;;;;;;;5018427;28;20270;-72
2022/07/09 04:41:11;;;;;;;28.20;15.87;;;;;;;;;;5023023;28;20606;-72
2022/07/09 04:43:36;;;;;;;31.38;16.48;;;;;;;;;;5021663;28;20040;-71
2022/07/09 04:46:02;;;;;;;27.40;14.70;;;;;;;;;;5019927;28;20022;-72
2022/07/09 04:48:27;;;;;;;31.42;14.73;;;;;;;;;;5019545;28;20071;-72
2022/07/09 04:50:52;;;;;;;26.23;13.80;;;;;;;;;;5023273;28;20403;-72
2022/07/09 04:53:17;;;;;;;28.03;13.53;;;;;;;;;;5023713;28;20025;-72
2022/07/09 04:55:42;;;;;;;25.08;14.10;;;;;;;;;;5025816;28;20293;-72
2022/07/09 04:58:08;;;;;;;27.23;15.30;;;;;;;;;;5023433;28;20056;-72
2022/07/09 05:00:33;;;;;;;28.50;15.25;;;;;;;;;;5025055;28;20275;-72
2022/07/09 05:02:58;;;;;;;32.72;16.67;;;;;;;;;;5024386;28;20035;-72
2022/07/09 05:05:25;;;;;;;29.63;15.90;;;;;;;;;;5026647;28;20530;-72
2022/07/09 05:07:50;;;;;;;30.60;16.88;;;;;;;;;;5028680;28;20025;-71
2022/07/09 05:10:16;;;;;;;37.00;17.08;;;;;;;;;;5025279;28;20021;-71
2022/07/09 05:12:41;;;;;;;35.80;17.50;;;;;;;;;;5018322;28;20053;-71
2022/07/09 05:15:06;;;;;;;36.73;19.23;;;;;;;;;;5019491;28;20075;-72
2022/07/09 05:17:35;;;;;;;44.95;20.48;;;;;;;;;;5019777;28;20026;-72
2022/07/09 05:20:00;;;;;;;45.33;22.20;;;;;;;;;;5022929;28;20065;-71
2022/07/09 05:22:25;;;;;;;46.90;21.80;;;;;;;;;;5021201;28;20188;-71
2022/07/09 05:24:51;;;;;;;45.03;21.80;;;;;;;;;;5021902;28;20025;-71
2022/07/09 05:27:16;;;;;;;37.40;20.83;;;;;;;;;;5019538;28;20026;-71
2022/07/09 05:29:41;;;;;;;50.28;24.23;;;;;;;;;;5025047;28;20104;-71
2022/07/09 05:32:07;;;;;;;55.78;27.65;;;;;;;;;;5020012;28;20418;-71
2022/07/09 05:34:32;;;;;;;48.95;26.40;;;;;;;;;;5019809;28;20033;-72
2022/07/09 05:36:57;;;;;;;49.40;26.83;;;;;;;;;;5023817;28;20029;-72
2022/07/09 05:39:23;;;;;;;57.58;31.27;;;;;;;;;;5023085;28;20098;-72
2022/07/09 05:41:48;;;;;;;55.33;30.92;;;;;;;;;;5021948;28;20932;-71
2022/07/09 05:44:14;;;;;;;54.58;32.95;;;;;;;;;;5022504;28;20108;-71
2022/07/09 05:46:39;;;;;;;57.72;28.05;;;;;;;;;;5015733;28;20037;-71
2022/07/09 05:49:04;;;;;;;59.83;28.08;;;;;;;;;;5026415;28;20033;-71
2022/07/09 05:51:29;;;;;;;53.93;27.53;;;;;;;;;;5024923;28;20398;-71
2022/07/09 05:53:55;;;;;;;57.83;28.63;;;;;;;;;;5019579;28;20034;-71
2022/07/09 05:56:20;;;;;;;51.42;27.02;;;;;;;;;;5019380;28;20606;-71
2022/07/09 05:58:46;;;;;;;52.53;26.13;;;;;;;;;;5021289;28;20071;-71
2022/07/09 06:01:12;;;;;;;52.30;25.85;;;;;;;;;;5021245;28;20121;-71
2022/07/09 06:03:38;;;;;;;55.08;25.58;;;;;;;;;;5019316;28;20026;-71
2022/07/09 06:06:03;;;;;;;51.93;24.23;;;;;;;;;;5023666;28;20063;-71
2022/07/09 06:08:28;;;;;;;56.40;25.70;;;;;;;;;;5024776;28;20320;-71
2022/07/09 06:10:53;;;;;;;48.72;25.33;;;;;;;;;;5015848;28;20037;-71
2022/07/09 06:13:19;;;;;;;51.87;25.53;;;;;;;;;;5021132;28;20031;-71
2022/07/09 06:15:44;;;;;;;49.13;23.15;;;;;;;;;;5018942;28;20292;-71
2022/07/09 06:18:09;;;;;;;41.27;22.93;;;;;;;;;;5019672;28;20108;-71
2022/07/09 06:20:34;;;;;;;49.40;23.83;;;;;;;;;;5014580;28;20277;-71
2022/07/09 06:22:59;;;;;;;44.35;21.98;;;;;;;;;;5022196;28;20285;-71
2022/07/09 06:25:25;;;;;;;45.50;23.17;;;;;;;;;;5024437;28;20131;-71
2022/07/09 06:27:50;;;;;;;40.17;21.67;;;;;;;;;;5026798;28;20079;-71
2022/07/09 06:30:15;;;;;;;41.50;22.50;;;;;;;;;;5025932;28;20743;-71
2022/07/09 06:32:40;;;;;;;40.53;22.10;;;;;;;;;;5024912;28;20300;-71
2022/07/09 06:35:06;;;;;;;41.87;22.20;;;;;;;;;;5022667;28;20032;-71
2022/07/09 06:37:31;;;;;;;38.78;21.35;;;;;;;;;;5025804;28;20255;-71
2022/07/09 06:39:59;;;;;;;38.37;21.13;;;;;;;;;;5026968;28;20447;-71
2022/07/09 06:42:24;;;;;;;37.17;20.15;;;;;;;;;;5025121;28;20032;-71
2022/07/09 06:44:49;;;;;;;36.22;19.13;;;;;;;;;;5017450;28;20454;-71
2022/07/09 06:47:14;;;;;;;35.07;19.33;;;;;;;;;;5022336;28;20033;-71
2022/07/09 06:49:39;;;;;;;31.17;19.42;;;;;;;;;;5029185;28;20463;-71
2022/07/09 06:52:05;;;;;;;33.55;18.05;;;;;;;;;;5026123;28;20030;-71
2022/07/09 06:54:30;;;;;;;32.35;18.00;;;;;;;;;;5021128;28;20449;-70
2022/07/09 06:56:56;;;;;;;37.60;18.27;;;;;;;;;;5024972;28;20447;-71
2022/07/09 06:59:22;;;;;;;32.15;17.42;;;;;;;;;;5025832;28;20624;-71
2022/07/09 07:01:47;;;;;;;24.90;16.27;;;;;;;;;;5020945;28;20026;-71
2022/07/09 07:04:14;;;;;;;29.77;16.92;;;;;;;;;;5019018;28;20029;-69
2022/07/09 07:06:40;;;;;;;28.17;16.08;;;;;;;;;;5022416;28;20020;-69
2022/07/09 07:09:05;;;;;;;26.85;14.98;;;;;;;;;;5018930;28;20026;-69
2022/07/09 07:11:30;;;;;;;26.00;15.18;;;;;;;;;;5021470;28;20025;-70
2022/07/09 07:13:56;;;;;;;15.70;10.82;;;;;;;;;;5016055;28;20086;-70
2022/07/09 07:16:21;;;;;;;21.27;12.07;;;;;;;;;;5021628;28;20512;-70
2022/07/09 07:18:46;;;;;;;17.20;11.53;;;;;;;;;;5024437;28;20025;-71
2022/07/09 07:21:11;;;;;;;18.50;10.82;;;;;;;;;;5017888;28;20077;-71
2022/07/09 07:23:36;;;;;;;17.90;11.17;;;;;;;;;;5018879;28;20036;-71
2022/07/09 07:26:01;;;;;;;17.27;11.50;;;;;;;;;;5018369;28;20539;-72
2022/07/09 07:28:27;;;;;;;16.63;10.10;;;;;;;;;;5021073;28;20021;-71
2022/07/09 07:30:52;;;;;;;17.60;11.43;;;;;;;;;;5020776;28;20270;-71
2022/07/09 07:33:17;;;;;;;21.75;11.93;;;;;;;;;;5025371;28;20022;-71
2022/07/09 07:35:46;;;;;;;17.70;11.63;;;;;;;;;;5035693;28;20592;-71
2022/07/09 07:38:11;;;;;;;20.50;11.88;;;;;;;;;;5028485;28;20353;-71
2022/07/09 07:40:36;;;;;;;20.30;11.93;;;;;;;;;;5027946;28;20100;-71
2022/07/09 07:43:02;;;;;;;24.10;11.40;;;;;;;;;;5019019;28;20210;-70
2022/07/09 07:45:27;;;;;;;19.67;11.43;;;;;;;;;;5020514;28;20018;-71
2022/07/09 07:47:54;;;;;;;19.50;11.90;;;;;;;;;;5022180;28;20025;-70
2022/07/09 07:50:19;;;;;;;21.88;12.43;;;;;;;;;;5019913;28;20275;-71
2022/07/09 07:52:44;;;;;;;19.85;11.88;;;;;;;;;;5022605;28;20040;-70
2022/07/09 07:55:09;;;;;;;25.13;13.02;;;;;;;;;;5020709;28;20033;-71
2022/07/09 07:57:34;;;;;;;20.90;13.10;;;;;;;;;;5019137;28;20029;-74
2022/07/09 08:00:00;;;;;;;24.10;12.90;;;;;;;;;;5020823;28;20067;-70
2022/07/09 08:02:25;;;;;;;22.13;12.80;;;;;;;;;;5020382;28;20029;-75
2022/07/09 08:04:50;;;;;;;25.63;14.10;;;;;;;;;;5020991;28;20487;-71
2022/07/09 08:07:15;;;;;;;24.15;14.40;;;;;;;;;;5019168;28;20021;-73
2022/07/09 08:09:40;;;;;;;23.45;15.02;;;;;;;;;;5018319;28;20100;-72
2022/07/09 08:12:06;;;;;;;25.97;16.20;;;;;;;;;;5024483;28;20116;-73
2022/07/09 08:14:31;;;;;;;23.92;13.15;;;;;;;;;;5012647;28;20575;-71
2022/07/09 08:16:56;;;;;;;24.83;15.30;;;;;;;;;;5016765;28;20033;-70
2022/07/09 08:19:21;;;;;;;25.58;14.27;;;;;;;;;;5009330;28;20036;-71
2022/07/09 08:21:47;;;;;;;23.75;13.73;;;;;;;;;;5017438;28;20057;-72
2022/07/09 08:24:12;;;;;;;21.87;13.17;;;;;;;;;;5018812;28;20626;-71
2022/07/09 08:26:37;;;;;;;24.70;13.50;;;;;;;;;;5020372;28;20136;-70
2022/07/09 08:29:02;;;;;;;25.87;16.17;;;;;;;;;;5018202;28;20524;-71
2022/07/09 08:31:27;;;;;;;20.07;13.23;;;;;;;;;;5018671;28;20115;-72
2022/07/09 08:33:52;;;;;;;19.77;12.63;;;;;;;;;;5020400;28;20037;-72
2022/07/09 08:36:18;;;;;;;22.47;12.60;;;;;;;;;;5019186;28;20282;-71
2022/07/09 08:38:43;;;;;;;21.42;13.70;;;;;;;;;;5015314;28;20271;-71
2022/07/09 08:41:08;;;;;;;20.42;13.05;;;;;;;;;;5012983;28;20025;-72
2022/07/09 08:43:35;;;;;;;16.98;11.45;;;;;;;;;;5017228;28;20067;-72
2022/07/09 08:46:00;;;;;;;17.05;11.27;;;;;;;;;;5012621;28;20022;-71
2022/07/09 08:48:25;;;;;;;20.25;12.27;;;;;;;;;;5023271;28;20017;-71
2022/07/09 08:50:51;;;;;;;26.33;12.38;;;;;;;;;;5018372;28;20302;-71
2022/07/09 08:53:17;;;;;;;20.80;11.70;;;;;;;;;;5015967;28;20022;-71
2022/07/09 08:55:42;;;;;;;21.23;11.90;;;;;;;;;;5019488;28;20026;-71
2022/07/09 08:58:08;;;;;;;22.70;13.97;;;;;;;;;;5023789;28;20033;-73
2022/07/09 09:00:33;;;;;;;20.65;12.82;;;;;;;;;;5013306;28;20423;-71
2022/07/09 09:02:58;;;;;;;22.08;13.88;;;;;;;;;;5018875;28;20485;-70
2022/07/09 09:05:23;;;;;;;20.37;12.97;;;;;;;;;;5024949;28;20091;-71
2022/07/09 09:07:48;;;;;;;22.77;13.47;;;;;;;;;;5025284;28;20057;-71
2022/07/09 09:10:21;;;;;;;20.58;13.80;;;;;;;;;;5022996;28;20084;-71
2022/07/09 09:12:47;;;;;;;19.75;13.05;;;;;;;;;;5026178;28;20068;-71
2022/07/09 09:15:16;;;;;;;19.20;13.97;;;;;;;;;;5017155;28;20116;-72
2022/07/09 09:17:45;;;;;;;17.42;12.57;;;;;;;;;;5026401;28;20033;-71
2022/07/09 09:20:11;;;;;;;22.92;14.35;;;;;;;;;;5028855;28;20824;-71
2022/07/09 09:22:43;;;;;;;22.30;15.20;;;;;;;;;;5028267;28;20025;-69
2022/07/09 09:25:14;;;;;;;24.25;15.05;;;;;;;;;;5022857;28;20033;-72
2022/07/09 09:27:39;;;;;;;19.45;13.95;;;;;;;;;;5027198;28;20036;-72
2022/07/09 09:30:07;;;;;;;20.50;13.40;;;;;;;;;;5023380;28;20026;-70
2022/07/09 09:32:33;;;;;;;21.33;14.52;;;;;;;;;;5019348;28;20451;-73
2022/07/09 09:35:01;;;;;;;22.70;14.40;;;;;;;;;;5028520;28;20029;-72
2022/07/09 09:37:28;;;;;;;22.40;14.15;;;;;;;;;;5028308;28;20057;-68
2022/07/09 09:39:53;;;;;;;24.77;14.63;;;;;;;;;;5028436;28;20074;-74
2022/07/09 09:42:18;;;;;;;21.23;14.80;;;;;;;;;;5025243;28;20041;-73
2022/07/09 09:44:44;;;;;;;25.10;15.85;;;;;;;;;;5021579;28;20029;-71
2022/07/09 09:47:10;;;;;;;25.35;16.90;;;;;;;;;;5025395;28;20061;-73
2022/07/09 09:49:37;;;;;;;30.20;16.70;;;;;;;;;;5027768;28;20444;-72
2022/07/09 09:52:02;;;;;;;25.30;15.65;;;;;;;;;;5027785;28;20100;-70
2022/07/09 09:54:28;;;;;;;27.63;17.13;;;;;;;;;;5024037;28;20433;-70
2022/07/09 09:56:53;;;;;;;25.85;16.55;;;;;;;;;;5023868;28;20033;-70
2022/07/09 09:59:19;;;;;;;28.27;17.42;;;;;;;;;;5028046;28;20452;-72
2022/07/09 10:01:44;;;;;;;31.20;18.95;;;;;;;;;;5024943;28;20056;-71
2022/07/09 10:04:10;;;;;;;25.52;16.38;;;;;;;;;;5027868;28;20029;-73
2022/07/09 10:06:36;;;;;;;24.40;16.98;;;;;;;;;;5027281;28;20017;-72
2022/07/09 10:09:03;;;;;;;24.70;16.83;;;;;;;;;;5026657;28;20026;-73
2022/07/09 10:11:47;;;;;;;23.15;15.50;;;;;;;;;;5020669;28;20526;-74
2022/07/09 10:14:16;;;;;;;24.85;17.02;;;;;;;;;;5026532;28;20029;-71
2022/07/09 10:16:42;;;;;;;26.23;16.13;;;;;;;;;;5020182;28;20037;-71
2022/07/09 10:19:07;;;;;;;24.30;15.77;;;;;;;;;;5021606;28;20038;-70
2022/07/09 10:21:40;;;;;;;28.07;15.87;;;;;;;;;;5027930;28;20025;-72
2022/07/09 10:24:05;;;;;;;25.63;15.55;;;;;;;;;;5016774;28;20029;-72
2022/07/09 10:26:35;;;;;;;22.52;14.60;;;;;;;;;;5027630;28;20032;-72
2022/07/09 10:29:00;;;;;;;21.42;14.90;;;;;;;;;;5024462;28;20017;-73
2022/07/09 10:31:25;;;;;;;21.77;14.23;;;;;;;;;;5025742;28;20041;-73
2022/07/09 10:33:59;;;;;;;20.45;13.55;;;;;;;;;;5018460;28;20120;-73
2022/07/09 10:36:25;;;;;;;25.80;14.63;;;;;;;;;;5021516;28;20068;-70
2022/07/09 10:38:55;;;;;;;21.23;14.65;;;;;;;;;;5020962;28;20068;-73
2022/07/09 10:41:23;;;;;;;16.70;13.98;;;;;;;;;;5018595;28;20021;-72
2022/07/09 10:43:52;;;;;;;24.50;15.85;;;;;;;;;;5022121;28;20420;-71
2022/07/09 10:46:17;;;;;;;23.10;17.05;;;;;;;;;;5015858;28;20418;-74
2022/07/09 10:48:46;;;;;;;28.02;17.73;;;;;;;;;;5019942;28;20047;-68
2022/07/09 10:51:18;;;;;;;24.80;15.07;;;;;;;;;;5028819;28;20128;-70
2022/07/09 10:53:43;;;;;;;20.23;14.43;;;;;;;;;;5027653;28;20022;-69
2022/07/09 10:56:08;;;;;;;21.80;12.38;;;;;;;;;;5023794;28;20068;-71
2022/07/09 10:58:33;;;;;;;12.90;8.18;;;;;;;;;;5021273;28;20017;-70
2022/07/09 11:01:00;;;;;;;10.90;8.70;;;;;;;;;;5022289;28;20075;-71
2022/07/09 11:03:26;;;;;;;13.15;8.00;;;;;;;;;;5018679;28;20075;-71
2022/07/09 11:05:51;;;;;;;12.52;9.07;;;;;;;;;;5026983;28;20018;-70
2022/07/09 11:08:16;;;;;;;11.23;8.50;;;;;;;;;;5025329;28;20022;-68
2022/07/09 11:10:42;;;;;;;9.83;8.03;;;;;;;;;;5018025;28;20018;-70
2022/07/09 11:13:08;;;;;;;14.33;9.87;;;;;;;;;;5024641;28;20817;-70
2022/07/09 11:15:34;;;;;;;13.90;9.15;;;;;;;;;;5021357;28;20297;-69
2022/07/09 11:18:03;;;;;;;10.82;8.60;;;;;;;;;;5027176;28;20405;-70
2022/07/09 11:20:29;;;;;;;11.73;7.40;;;;;;;;;;5028579;28;20101;-68
2022/07/09 11:22:56;;;;;;;15.15;8.55;;;;;;;;;;5026797;28;20121;-67
2022/07/09 11:25:22;;;;;;;8.85;7.70;;;;;;;;;;5024689;28;20595;-70
2022/07/09 11:27:47;;;;;;;10.90;7.07;;;;;;;;;;5028758;28;20140;-69
2022/07/09 11:30:14;;;;;;;8.00;7.00;;;;;;;;;;5020155;28;20052;-73
2022/07/09 11:32:39;;;;;;;10.80;8.10;;;;;;;;;;5026230;28;20029;-69
2022/07/09 11:35:04;;;;;;;8.13;7.13;;;;;;;;;;5026765;28;20018;-72
2022/07/09 11:37:30;;;;;;;11.20;8.23;;;;;;;;;;5028370;28;20029;-71
2022/07/09 11:39:55;;;;;;;10.50;7.18;;;;;;;;;;5025346;28;20025;-71
2022/07/09 11:42:20;;;;;;;8.93;6.00;;;;;;;;;;5027229;28;20435;-70
2022/07/09 11:44:59;;;;;;;10.10;5.97;;;;;;;;;;5021082;28;20068;-70
2022/07/09 11:47:37;;;;;;;5.53;4.97;;;;;;;;;;5021000;28;20041;-70
2022/07/09 11:50:09;;;;;;;5.97;4.40;;;;;;;;;;5032055;28;20505;-71
2022/07/09 11:52:34;;;;;;;11.98;4.47;;;;;;;;;;5026201;28;20018;-69
2022/07/09 11:55:04;;;;;;;4.32;3.95;;;;;;;;;;5024897;28;20041;-69
2022/07/09 11:57:30;;;;;;;6.35;3.95;;;;;;;;;;5026667;28;20084;-69
2022/07/09 11:59:55;;;;;;;4.95;3.63;;;;;;;;;;5024406;28;20460;-71
2022/07/09 12:02:29;;;;;;;5.43;3.25;;;;;;;;;;5022756;28;20040;-71
2022/07/09 12:04:54;;;;;;;6.10;3.50;;;;;;;;;;5022689;28;20018;-72
2022/07/09 12:07:19;;;;;;;6.13;3.20;;;;;;;;;;5026587;28;20443;-72
2022/07/09 12:09:45;;;;;;;4.50;2.63;;;;;;;;;;5025664;28;20313;-70
2022/07/09 12:12:10;;;;;;;6.97;3.10;;;;;;;;;;5020057;28;20490;-71
2022/07/09 12:14:35;;;;;;;3.37;2.90;;;;;;;;;;5022452;28;20028;-71
2022/07/09 12:17:00;;;;;;;4.30;2.93;;;;;;;;;;5025256;28;20044;-69
2022/07/09 12:19:26;;;;;;;4.35;2.53;;;;;;;;;;5025764;28;20064;-71
2022/07/09 12:21:51;;;;;;;6.18;2.75;;;;;;;;;;5014805;28;20024;-71
2022/07/09 12:24:16;;;;;;;6.57;2.97;;;;;;;;;;5021303;28;20029;-72
2022/07/09 12:26:41;;;;;;;5.30;3.30;;;;;;;;;;5019195;28;20063;-70
2022/07/09 12:29:06;;;;;;;3.37;2.27;;;;;;;;;;5021840;28;20041;-71
2022/07/09 12:31:32;;;;;;;3.10;2.80;;;;;;;;;;5022993;28;20314;-70
2022/07/09 12:33:57;;;;;;;7.55;2.58;;;;;;;;;;5023393;28;20021;-71
2022/07/09 12:36:22;;;;;;;6.90;2.57;;;;;;;;;;5023342;28;20428;-72
2022/07/09 12:38:47;;;;;;;8.77;2.70;;;;;;;;;;5034767;28;20022;-69
2022/07/09 12:41:13;;;;;;;4.32;2.47;;;;;;;;;;5029912;28;20053;-71
2022/07/09 12:43:38;;;;;;;9.97;2.70;;;;;;;;;;5024165;28;20384;-69
2022/07/09 12:46:03;;;;;;;6.40;2.90;;;;;;;;;;5026730;28;20032;-72
2022/07/09 12:48:28;;;;;;;6.32;2.50;;;;;;;;;;5027333;28;20054;-72
2022/07/09 12:50:54;;;;;;;10.20;2.50;;;;;;;;;;5029255;28;20021;-74
2022/07/09 12:53:19;;;;;;;6.57;2.30;;;;;;;;;;5024230;28;20101;-73
2022/07/09 12:55:44;;;;;;;2.23;1.90;;;;;;;;;;5022726;28;20356;-74
2022/07/09 12:58:09;;;;;;;2.70;2.10;;;;;;;;;;5018478;28;20380;-72
2022/07/09 13:00:34;;;;;;;5.33;2.20;;;;;;;;;;5015783;28;20041;-72
2022/07/09 13:03:00;;;;;;;2.50;2.23;;;;;;;;;;5017411;28;20152;-73
2022/07/09 13:05:25;;;;;;;5.63;2.25;;;;;;;;;;5020501;28;20352;-72
2022/07/09 13:07:50;;;;;;;2.00;1.80;;;;;;;;;;5020576;28;20022;-73
2022/07/09 13:10:15;;;;;;;3.53;1.92;;;;;;;;;;5023664;28;20021;-71
2022/07/09 13:12:41;;;;;;;2.87;1.90;;;;;;;;;;5028631;28;20124;-72
2022/07/09 13:15:06;;;;;;;6.77;1.93;;;;;;;;;;5022506;28;20025;-73
2022/07/09 13:17:31;;;;;;;3.53;1.90;;;;;;;;;;5021976;28;20637;-72
2022/07/09 13:19:56;;;;;;;6.93;1.60;;;;;;;;;;5019695;28;20144;-74
2022/07/09 13:22:21;;;;;;;2.20;1.70;;;;;;;;;;5019373;28;20384;-74
2022/07/09 13:24:47;;;;;;;4.63;2.20;;;;;;;;;;5026028;28;20045;-73
2022/07/09 13:27:12;;;;;;;6.23;2.50;;;;;;;;;;5022589;28;20096;-70
2022/07/09 13:29:38;;;;;;;5.30;2.20;;;;;;;;;;5027948;28;20286;-73
2022/07/09 13:32:03;;;;;;;5.07;2.25;;;;;;;;;;5026975;28;20489;-73
2022/07/09 13:34:28;;;;;;;3.00;2.03;;;;;;;;;;5031081;28;20033;-73
2022/07/09 13:36:53;;;;;;;5.38;1.85;;;;;;;;;;5029096;28;20096;-71
2022/07/09 13:39:19;;;;;;;3.63;2.30;;;;;;;;;;5020304;28;20064;-71
2022/07/09 13:41:44;;;;;;;9.57;2.43;;;;;;;;;;5028589;28;20117;-71
2022/07/09 13:44:09;;;;;;;4.97;2.22;;;;;;;;;;5020441;28;20794;-72
2022/07/09 13:46:34;;;;;;;6.23;2.10;;;;;;;;;;5018136;28;20121;-70
2022/07/09 13:48:59;;;;;;;4.27;2.20;;;;;;;;;;5018904;28;20377;-71
2022/07/09 13:51:25;;;;;;;5.07;2.20;;;;;;;;;;5021984;28;20686;-71
2022/07/09 13:53:50;;;;;;;3.80;1.70;;;;;;;;;;5023239;28;20463;-71
2022/07/09 13:56:15;;;;;;;6.20;2.63;;;;;;;;;;5020398;28;20312;-73
2022/07/09 13:58:42;;;;;;;4.67;2.37;;;;;;;;;;5018042;28;20274;-71
2022/07/09 14:01:07;;;;;;;3.38;2.08;;;;;;;;;;5020749;28;20033;-71
2022/07/09 14:03:32;;;;;;;4.97;1.93;;;;;;;;;;5017526;28;20022;-72
2022/07/09 14:05:57;;;;;;;7.53;1.73;;;;;;;;;;5015618;28;20044;-71
2022/07/09 14:08:24;;;;;;;2.73;1.63;;;;;;;;;;5023239;28;20419;-74
2022/07/09 14:10:51;;;;;;;6.03;1.73;;;;;;;;;;5024320;28;20250;-71
2022/07/09 14:13:16;;;;;;;6.38;1.88;;;;;;;;;;5022838;28;20438;-70